Ordway, Colorado
Current Conditions -  °F | °C
As of 11:53 PM on Sunday 23 Nov 2014 (Local Time) from KLHX Reporting Station
Clear Clear  
Wind Chill: 17°   Ceiling: Unl
Heat Index: 28°   Visibility: 10mi
Dew Point: 24°   Wind: 14mph
Humidity: 85%   Direction: 260°W
Pressure: 29.92"   Gusts: NA
Location:  38.22°N, 103.76°W
Report Text: KLHX 240653Z AUTO 26012KT 10SM CLR M02/M04 A2992 RMK AO2 SLP136 T10221044 400941022 $
Loading
Personal Weather Stations






























Interactive Weather Map New forecast layout! Learn more

10-Day Weather Forecast

Advertisements
Track Severe Weather on mobile